createdAt,value
2022-10-18T00:00:22.886Z,108520.13
2022-10-18T00:05:25.480Z,108369.72
2022-10-18T00:10:28.085Z,108231.16
2022-10-18T00:15:32.055Z,108101.84
2022-10-18T00:20:34.602Z,108084.63
2022-10-18T00:25:37.162Z,107963.22
2022-10-18T00:30:41.101Z,107860.88
2022-10-18T00:35:43.735Z,107799.41
2022-10-18T00:40:46.320Z,107763.06
2022-10-18T00:45:50.239Z,107709.78
2022-10-18T00:50:54.123Z,107650.97
2022-10-18T00:55:58.172Z,107643.75
2022-10-18T01:01:02.067Z,107661.28
2022-10-18T01:06:04.849Z,107741.69
2022-10-18T01:11:18.967Z,107964.97
2022-10-18T01:16:28.286Z,108246.53
2022-10-18T01:21:38.171Z,108532.28
2022-10-18T01:27:08.305Z,108823.13
2022-10-18T01:32:15.379Z,109016.13
2022-10-18T01:37:18.915Z,109220.03
2022-10-18T01:42:22.047Z,109409.59
2022-10-18T01:47:26.178Z,109543.53
2022-10-18T01:52:28.897Z,109593.16
2022-10-18T01:57:36.466Z,109552.56
2022-10-18T02:02:44.159Z,109422.38
2022-10-18T02:08:00.188Z,109476.34
2022-10-18T02:13:16.664Z,109528.19
2022-10-18T02:18:24.042Z,109632.25
2022-10-18T02:23:27.485Z,109739.72
2022-10-18T02:28:30.108Z,109878.28
2022-10-18T02:33:39.427Z,109935.31
2022-10-18T02:38:43.057Z,109907.59
2022-10-18T02:43:45.606Z,109819.19
2022-10-18T02:48:49.667Z,109712.41
2022-10-18T02:53:52.235Z,109804.91
2022-10-18T02:58:54.834Z,109982.34
2022-10-18T03:03:58.807Z,110243.50
2022-10-18T03:09:03.035Z,110237.19
2022-10-18T03:14:05.602Z,110097.63
2022-10-18T03:19:09.488Z,109943.19
2022-10-18T03:24:12.079Z,109784.34
2022-10-18T03:29:14.702Z,109210.84
2022-10-18T03:34:18.900Z,108833.84
2022-10-18T03:39:21.542Z,108823.22
2022-10-18T03:44:24.135Z,108712.63
2022-10-18T03:49:28.069Z,108277.50
2022-10-18T03:54:30.745Z,108149.34
2022-10-18T03:59:33.321Z,107951.97
2022-10-18T04:04:37.231Z,107901.94
2022-10-18T04:09:39.810Z,108032.09
2022-10-18T04:14:42.426Z,107795.34
2022-10-18T04:19:46.424Z,107468.81
2022-10-18T04:24:48.998Z,107230.97
2022-10-18T04:29:51.569Z,106886.78
2022-10-18T04:34:55.479Z,106774.97
2022-10-18T04:39:58.143Z,107246.84
2022-10-18T04:45:00.716Z,107206.22
2022-10-18T04:50:05.351Z,107029.19
2022-10-18T04:55:08.539Z,107050.53
2022-10-18T05:00:12.001Z,107044.78
2022-10-18T05:05:16.008Z,106915.84
2022-10-18T05:10:18.598Z,106762.22
2022-10-18T05:15:21.182Z,106690.63
2022-10-18T05:20:25.059Z,106630.66
2022-10-18T05:25:28.244Z,106617.53
2022-10-18T05:30:30.870Z,106605.00
2022-10-18T05:35:35.490Z,106623.41
2022-10-18T05:40:39.851Z,106644.50
2022-10-18T05:45:48.415Z,106676.78
2022-10-18T05:50:52.380Z,106758.97
2022-10-18T05:55:55.092Z,106798.09
2022-10-18T06:01:00.078Z,106816.72
2022-10-18T06:06:06.149Z,106830.38
2022-10-18T06:11:09.247Z,106805.66
2022-10-18T06:16:12.724Z,106742.47
2022-10-18T06:21:17.031Z,106639.94
2022-10-18T06:26:19.709Z,106599.31
2022-10-18T06:31:22.295Z,106606.50
2022-10-18T06:36:26.209Z,107579.56
2022-10-18T06:41:28.797Z,107537.03
2022-10-18T06:46:35.983Z,107426.91
2022-10-18T06:51:39.880Z,107387.13
2022-10-18T06:56:42.441Z,107487.44
2022-10-18T07:01:45.208Z,107583.16
2022-10-18T07:06:49.172Z,107685.81
2022-10-18T07:11:53.991Z,107744.34
2022-10-18T07:16:59.978Z,107802.16
2022-10-18T07:22:07.414Z,109526.16
2022-10-18T07:27:10.161Z,111861.88
2022-10-18T07:32:12.812Z,114862.78
2022-10-18T07:37:16.896Z,116383.06
2022-10-18T07:42:28.275Z,116282.47
2022-10-18T07:47:34.350Z,115031.00
2022-10-18T07:52:39.821Z,113008.41
2022-10-18T07:57:42.413Z,111420.31
2022-10-18T08:02:45.008Z,110264.53
2022-10-18T08:07:48.947Z,109582.88
2022-10-18T08:12:51.602Z,109323.69
2022-10-18T08:17:54.191Z,109108.28
2022-10-18T08:23:00.280Z,108926.75
2022-10-18T08:28:03.373Z,108759.78
2022-10-18T08:33:06.100Z,108698.97
2022-10-18T08:38:16.383Z,108433.88
2022-10-18T08:43:27.334Z,108308.03
2022-10-18T08:48:35.304Z,108189.53
2022-10-18T08:53:49.066Z,108196.22
2022-10-18T08:58:52.059Z,108144.94
2022-10-18T09:04:06.425Z,108170.16
2022-10-18T09:09:22.332Z,108012.78
2022-10-18T09:14:38.564Z,108036.47
2022-10-18T09:19:54.923Z,108014.13
2022-10-18T09:25:07.549Z,108066.28
2022-10-18T09:30:16.658Z,107959.56
2022-10-18T09:35:21.503Z,108139.25
2022-10-18T09:40:27.126Z,108522.06
2022-10-18T09:45:32.486Z,109044.41
2022-10-18T09:50:38.215Z,109054.38
2022-10-18T09:55:52.189Z,109448.22
2022-10-18T10:00:55.748Z,109298.41
2022-10-18T10:06:17.148Z,109554.78
2022-10-18T10:11:38.435Z,111068.34
2022-10-18T10:16:47.947Z,112351.53
2022-10-18T10:21:52.902Z,113444.94
2022-10-18T10:27:02.711Z,114346.88
2022-10-18T10:32:05.561Z,115735.41
2022-10-18T10:37:25.074Z,118409.41
2022-10-18T10:42:29.149Z,121055.34
2022-10-18T10:47:33.707Z,124363.47
2022-10-18T10:52:36.299Z,126663.09
2022-10-18T10:57:40.214Z,128226.84
2022-10-18T11:02:50.153Z,129376.25
2022-10-18T11:08:04.009Z,130366.28
2022-10-18T11:13:23.197Z,131117.16
2022-10-18T11:18:30.314Z,131994.69
2022-10-18T11:23:34.514Z,132760.00
2022-10-18T11:29:00.461Z,133714.22
2022-10-18T11:34:14.291Z,134264.06
2022-10-18T11:39:20.502Z,134435.97
2022-10-18T11:44:28.612Z,134387.66
2022-10-18T11:49:42.222Z,134446.06
2022-10-18T11:54:53.304Z,134779.81
2022-10-18T12:00:05.220Z,134816.81
2022-10-18T12:05:23.079Z,134789.50
2022-10-18T12:10:39.316Z,134911.13
2022-10-18T12:15:52.799Z,134917.50
2022-10-18T12:20:57.673Z,134753.53
2022-10-18T12:26:02.552Z,134702.81
2022-10-18T12:31:12.649Z,134648.50
2022-10-18T12:36:24.494Z,134636.13
2022-10-18T12:41:28.776Z,134576.31
2022-10-18T12:46:45.615Z,134396.78
2022-10-18T12:51:53.175Z,134126.00
2022-10-18T12:56:55.975Z,133964.53
2022-10-18T13:02:20.792Z,134036.31
2022-10-18T13:07:43.023Z,133963.66
2022-10-18T13:13:13.165Z,133734.56
2022-10-18T13:18:32.787Z,133413.78
2022-10-18T13:23:41.860Z,133146.50
2022-10-18T13:28:51.220Z,132869.84
2022-10-18T13:33:55.361Z,132197.09
2022-10-18T13:39:04.841Z,128828.41
2022-10-18T13:44:12.733Z,122647.91
2022-10-18T13:49:25.739Z,113840.16
2022-10-18T13:54:47.868Z,98634.28
2022-10-18T14:00:09.319Z,94133.47
2022-10-18T14:05:50.510Z,93983.22
2022-10-18T14:11:03.343Z,94233.63
2022-10-18T14:16:08.477Z,94420.69
2022-10-18T14:21:22.043Z,94451.16
2022-10-18T14:26:28.523Z,94638.28
2022-10-18T14:31:31.179Z,94806.91
2022-10-18T14:36:38.659Z,95118.31
2022-10-18T14:41:49.586Z,95410.88
2022-10-18T14:46:53.543Z,95526.41
2022-10-18T14:51:59.315Z,96267.50
2022-10-18T14:57:02.445Z,96652.50
2022-10-18T15:02:12.815Z,96881.53
2022-10-18T15:07:18.129Z,97004.34
2022-10-18T15:12:20.766Z,96689.84
2022-10-18T15:17:26.472Z,96632.88
2022-10-18T15:22:32.624Z,96293.50
2022-10-18T15:27:48.167Z,96083.16
2022-10-18T15:32:52.829Z,95982.00
2022-10-18T15:37:58.332Z,95762.72
2022-10-18T15:43:02.794Z,95721.47
2022-10-18T15:48:23.047Z,95797.72
2022-10-18T15:53:33.835Z,95947.91
2022-10-18T15:58:41.863Z,96074.16
2022-10-18T16:03:45.256Z,96142.91
2022-10-18T16:08:51.520Z,96203.56
2022-10-18T16:13:57.831Z,96244.03
2022-10-18T16:19:03.211Z,96272.13
2022-10-18T16:24:07.474Z,96282.94
2022-10-18T16:29:13.333Z,96318.16
2022-10-18T16:34:15.956Z,96313.44
2022-10-18T16:39:21.238Z,96324.47
2022-10-18T16:44:23.810Z,96370.50
2022-10-18T16:49:27.325Z,96347.06
2022-10-18T16:54:31.219Z,96369.34
2022-10-18T16:59:33.831Z,96419.34
2022-10-18T17:04:36.379Z,96426.25
2022-10-18T17:09:40.362Z,96419.47
2022-10-18T17:14:43.033Z,96413.75
2022-10-18T17:19:45.600Z,96424.25
2022-10-18T17:24:49.830Z,96429.97
2022-10-18T17:29:52.492Z,96396.81
2022-10-18T17:34:55.133Z,96435.34
2022-10-18T17:39:59.058Z,96465.44
2022-10-18T17:45:02.137Z,96496.25
2022-10-18T17:50:05.227Z,96502.47
2022-10-18T17:55:09.644Z,96555.75
2022-10-18T18:00:13.706Z,96558.44
2022-10-18T18:05:17.148Z,96593.84
2022-10-18T18:10:21.110Z,96612.50
2022-10-18T18:15:23.681Z,96648.00
2022-10-18T18:20:26.574Z,96681.59
2022-10-18T18:25:30.438Z,96696.63
2022-10-18T18:30:32.994Z,96721.81
2022-10-18T18:35:35.573Z,96715.69
2022-10-18T18:40:40.302Z,96761.34
2022-10-18T18:45:42.843Z,96752.13
2022-10-18T18:50:49.789Z,96824.72
2022-10-18T18:55:53.701Z,96848.44
2022-10-18T19:00:56.239Z,96883.78
2022-10-18T19:06:04.059Z,96922.75
2022-10-18T19:11:09.477Z,96943.09
2022-10-18T19:16:20.069Z,96959.91
2022-10-18T19:21:23.349Z,96991.94
2022-10-18T19:26:33.400Z,96889.22
2022-10-18T19:31:36.448Z,96868.13
2022-10-18T19:36:39.718Z,96874.50
2022-10-18T19:41:43.596Z,96858.72
2022-10-18T19:46:46.230Z,96868.44
2022-10-18T19:51:48.808Z,96849.06
2022-10-18T19:56:52.715Z,96851.72
2022-10-18T20:01:55.249Z,96861.63
2022-10-18T20:06:57.786Z,96860.88
2022-10-18T20:12:01.698Z,96865.38
2022-10-18T20:17:05.686Z,96854.97
2022-10-18T20:22:08.253Z,96854.22
2022-10-18T20:27:12.148Z,96838.47
2022-10-18T20:32:15.710Z,96850.09
2022-10-18T20:37:18.250Z,96858.22
2022-10-18T20:42:22.143Z,96824.75
2022-10-18T20:47:24.716Z,96813.38
2022-10-18T20:52:27.715Z,96806.50
2022-10-18T20:57:34.309Z,96782.66
2022-10-18T21:02:39.066Z,96805.88
2022-10-18T21:07:41.648Z,96790.91
2022-10-18T21:12:47.678Z,96830.91
2022-10-18T21:17:51.104Z,96786.88
2022-10-18T21:22:53.939Z,96753.53
2022-10-18T21:27:57.824Z,96762.47
2022-10-18T21:33:00.377Z,96750.16
2022-10-18T21:38:02.962Z,96782.22
2022-10-18T21:43:06.859Z,96746.19
2022-10-18T21:48:09.468Z,96770.72
2022-10-18T21:53:13.542Z,96764.59
2022-10-18T21:58:17.454Z,96759.41
2022-10-18T22:03:23.141Z,96753.28
2022-10-18T22:08:25.828Z,96782.38
2022-10-18T22:13:29.785Z,96762.09
2022-10-18T22:18:33.122Z,96801.88
2022-10-18T22:23:37.262Z,96798.31
2022-10-18T22:28:41.851Z,96772.56
2022-10-18T22:33:44.597Z,96805.09
2022-10-18T22:38:47.188Z,96858.84
2022-10-18T22:43:52.489Z,96885.28
2022-10-18T22:48:55.056Z,96937.22
2022-10-18T22:53:57.607Z,96992.69
2022-10-18T22:59:01.563Z,96976.16
2022-10-18T23:04:04.342Z,97046.34
2022-10-18T23:09:08.051Z,97096.38
2022-10-18T23:14:11.996Z,97125.34
2022-10-18T23:19:16.164Z,97145.56
2022-10-18T23:24:18.766Z,97185.91
2022-10-18T23:29:22.858Z,97289.34
2022-10-18T23:34:25.471Z,97339.34
2022-10-18T23:39:28.050Z,97440.97
2022-10-18T23:44:31.954Z,97492.63
2022-10-18T23:49:34.548Z,97487.41
2022-10-18T23:54:37.159Z,97538.19
2022-10-18T23:59:41.105Z,97550.44
